createdAt,value
2019-05-18T00:01:23.977Z,99.90
2019-05-18T00:06:47.483Z,99.90
2019-05-18T00:12:11.148Z,99.90
2019-05-18T00:17:34.355Z,99.90
2019-05-18T00:22:57.996Z,99.90
2019-05-18T00:28:21.458Z,99.90
2019-05-18T00:33:45.141Z,99.90
2019-05-18T00:39:08.364Z,99.90
2019-05-18T00:44:32.332Z,99.90
2019-05-18T00:49:55.837Z,99.90
2019-05-18T00:55:19.723Z,99.90
2019-05-18T01:00:43.438Z,99.90
2019-05-18T01:06:06.926Z,99.90
2019-05-18T01:11:30.179Z,99.90
2019-05-18T01:16:53.388Z,99.90
2019-05-18T01:22:17.208Z,99.90
2019-05-18T01:27:41.785Z,99.90
2019-05-18T01:33:05.018Z,99.90
2019-05-18T01:38:28.608Z,99.90
2019-05-18T01:43:51.904Z,99.90
2019-05-18T01:49:15.970Z,99.90
2019-05-18T01:54:39.809Z,99.90
2019-05-18T02:00:03.356Z,99.90
2019-05-18T02:05:27.400Z,99.90
2019-05-18T02:10:50.794Z,99.90
2019-05-18T02:16:14.790Z,99.90
2019-05-18T02:21:38.615Z,99.90
2019-05-18T02:27:02.483Z,99.90
2019-05-18T02:32:26.211Z,99.90
2019-05-18T02:37:49.308Z,99.90
2019-05-18T02:43:13.027Z,99.90
2019-05-18T02:48:48.569Z,99.90
2019-05-18T02:54:01.143Z,99.90
2019-05-18T02:59:24.894Z,99.90
2019-05-18T03:04:48.584Z,99.90
2019-05-18T03:10:12.349Z,99.90
2019-05-18T03:15:35.969Z,99.90
2019-05-18T03:21:00.094Z,99.90
2019-05-18T03:26:23.824Z,99.90
2019-05-18T03:31:47.496Z,99.90
2019-05-18T03:37:11.429Z,99.90
2019-05-18T03:42:34.877Z,99.90
2019-05-18T03:47:58.615Z,99.90
2019-05-18T03:53:22.276Z,99.90
2019-05-18T03:58:45.632Z,99.90
2019-05-18T04:04:08.882Z,99.90
2019-05-18T04:09:32.136Z,99.90
2019-05-18T04:14:55.898Z,99.90
2019-05-18T04:20:20.132Z,99.90
2019-05-18T04:25:44.065Z,99.90
2019-05-18T04:31:07.624Z,99.90
2019-05-18T04:36:31.663Z,99.90
2019-05-18T04:41:55.799Z,99.90
2019-05-18T04:47:19.172Z,99.90
2019-05-18T04:52:42.940Z,99.90
2019-05-18T04:58:06.775Z,99.90
2019-05-18T05:03:30.648Z,99.90
2019-05-18T05:08:53.841Z,99.90
2019-05-18T05:14:17.087Z,99.90
2019-05-18T05:19:41.148Z,99.90
2019-05-18T05:25:04.805Z,99.90
2019-05-18T05:30:28.122Z,99.90
2019-05-18T05:35:52.006Z,99.90
2019-05-18T05:41:16.711Z,99.90
2019-05-18T05:46:40.904Z,99.90
2019-05-18T05:52:04.591Z,99.90
2019-05-18T05:57:28.610Z,99.90
2019-05-18T06:02:52.252Z,99.90
2019-05-18T06:08:15.917Z,99.90
2019-05-18T06:13:39.920Z,99.90
2019-05-18T06:19:05.657Z,99.90
2019-05-18T06:24:29.442Z,99.90
2019-05-18T06:29:53.403Z,99.90
2019-05-18T06:35:17.280Z,99.90
2019-05-18T06:40:41.242Z,99.90
2019-05-18T06:46:06.174Z,99.90
2019-05-18T06:51:29.660Z,99.90
2019-05-18T06:56:56.391Z,99.90
2019-05-18T07:02:21.231Z,99.90
2019-05-18T07:07:47.355Z,99.90
2019-05-18T07:13:10.464Z,99.90
2019-05-18T07:18:34.408Z,99.90
2019-05-18T07:23:58.215Z,99.90
2019-05-18T07:29:21.885Z,99.90
2019-05-18T07:34:45.399Z,99.90
2019-05-18T07:40:10.259Z,99.90
2019-05-18T07:45:34.194Z,99.90
2019-05-18T07:50:58.227Z,99.90
2019-05-18T07:56:21.831Z,99.90
2019-05-18T08:01:48.035Z,99.90
2019-05-18T08:07:11.633Z,99.90
2019-05-18T08:12:35.895Z,99.90
2019-05-18T08:17:59.359Z,99.90
2019-05-18T08:23:22.682Z,99.90
2019-05-18T08:28:45.878Z,99.90
2019-05-18T08:34:10.428Z,99.90
2019-05-18T08:39:33.910Z,99.90
2019-05-18T08:44:56.998Z,99.90
2019-05-18T08:50:20.417Z,99.90
2019-05-18T08:55:43.816Z,99.90
2019-05-18T09:01:07.462Z,99.90
2019-05-18T09:06:31.048Z,99.90
2019-05-18T09:11:54.543Z,99.90
2019-05-18T09:17:18.260Z,99.90
2019-05-18T09:22:41.216Z,99.90
2019-05-18T09:28:04.572Z,99.90
2019-05-18T09:33:28.248Z,99.90
2019-05-18T09:38:51.402Z,99.90
2019-05-18T09:44:15.598Z,99.90
2019-05-18T09:49:39.015Z,99.90
2019-05-18T09:55:02.224Z,99.90
2019-05-18T10:00:25.280Z,99.90
2019-05-18T10:05:49.246Z,99.90
2019-05-18T10:11:13.119Z,99.90
2019-05-18T10:16:36.981Z,99.90
2019-05-18T10:22:00.627Z,99.90
2019-05-18T10:27:24.187Z,99.90
2019-05-18T10:32:48.139Z,99.90
2019-05-18T10:38:11.423Z,99.90
2019-05-18T10:43:35.844Z,99.90
2019-05-18T10:48:58.918Z,99.90
2019-05-18T10:54:22.924Z,99.90
2019-05-18T10:59:46.825Z,99.90
2019-05-18T11:05:11.194Z,99.90
2019-05-18T11:10:35.167Z,99.90
2019-05-18T11:15:58.852Z,99.90
2019-05-18T11:21:22.063Z,99.90
2019-05-18T11:26:45.175Z,99.90
2019-05-18T11:32:08.707Z,99.90
2019-05-18T11:37:32.440Z,99.90
2019-05-18T11:42:55.818Z,99.90
2019-05-18T11:48:19.629Z,99.90
2019-05-18T11:53:56.223Z,99.90
2019-05-18T11:59:08.827Z,99.90
2019-05-18T12:04:32.288Z,99.90
2019-05-18T12:09:55.820Z,99.90
2019-05-18T12:15:20.397Z,99.90
2019-05-18T12:20:44.642Z,99.90
2019-05-18T12:26:07.827Z,99.90
2019-05-18T12:31:31.700Z,99.90
2019-05-18T12:36:55.755Z,99.90
2019-05-18T12:42:19.872Z,99.90
2019-05-18T12:47:43.481Z,99.90
2019-05-18T12:53:07.267Z,99.90
2019-05-18T12:58:30.743Z,99.90
2019-05-18T13:03:54.223Z,99.90
2019-05-18T13:09:19.742Z,99.90
2019-05-18T13:14:44.899Z,97.30
2019-05-18T13:20:09.628Z,99.90
2019-05-18T13:25:32.819Z,98.50
2019-05-18T13:30:56.675Z,98.30
2019-05-18T13:36:20.146Z,99.90
2019-05-18T13:41:44.250Z,99.90
2019-05-18T13:47:07.564Z,96.50
2019-05-18T13:52:30.808Z,99.90
2019-05-18T13:57:54.001Z,96.70
2019-05-18T14:03:17.644Z,97.20
2019-05-18T14:08:41.591Z,93.90
2019-05-18T14:14:05.610Z,91.90
2019-05-18T14:19:29.819Z,94.10
2019-05-18T14:24:53.364Z,94.90
2019-05-18T14:30:17.474Z,91.40
2019-05-18T14:35:41.147Z,93.60
2019-05-18T14:41:05.414Z,91.60
2019-05-18T14:46:28.919Z,90.50
2019-05-18T14:51:52.747Z,91.50
2019-05-18T14:57:16.044Z,90.60
2019-05-18T15:02:39.032Z,94.10
2019-05-18T15:08:02.881Z,92.20
2019-05-18T15:13:26.567Z,95.30
2019-05-18T15:18:50.379Z,92.90
2019-05-18T15:24:14.095Z,95.00
2019-05-18T15:29:37.928Z,92.80
2019-05-18T15:35:02.007Z,91.90
2019-05-18T15:40:25.272Z,98.40
2019-05-18T15:45:48.730Z,99.90
2019-05-18T15:51:11.819Z,99.90
2019-05-18T15:56:35.790Z,99.90
2019-05-18T16:01:58.999Z,99.90
2019-05-18T16:07:22.902Z,99.90
2019-05-18T16:12:48.278Z,99.90
2019-05-18T16:18:12.022Z,99.90
2019-05-18T16:23:34.987Z,99.90
2019-05-18T16:28:58.063Z,99.90
2019-05-18T16:34:21.694Z,99.90
2019-05-18T16:39:45.547Z,99.90
2019-05-18T16:45:10.087Z,99.90
2019-05-18T16:50:33.441Z,99.90
2019-05-18T16:55:57.547Z,99.90
2019-05-18T17:01:21.847Z,99.90
2019-05-18T17:06:46.044Z,99.90
2019-05-18T17:12:09.688Z,99.90
2019-05-18T17:17:35.322Z,99.90
2019-05-18T17:22:57.716Z,99.90
2019-05-18T17:28:21.378Z,99.90
2019-05-18T17:33:45.704Z,99.90
2019-05-18T17:39:09.107Z,99.90
2019-05-18T17:44:32.235Z,99.90
2019-05-18T17:49:58.252Z,99.90
2019-05-18T17:55:22.359Z,99.90
2019-05-18T18:00:45.868Z,99.90
2019-05-18T18:16:55.180Z,99.90
2019-05-18T18:22:18.849Z,99.90
2019-05-18T18:27:42.909Z,99.90
2019-05-18T18:33:06.271Z,99.90
2019-05-18T18:38:30.423Z,99.90
2019-05-18T18:43:53.923Z,99.90
2019-05-18T18:49:17.713Z,99.90
2019-05-18T18:54:41.063Z,99.90
2019-05-18T19:00:04.690Z,99.90
2019-05-18T19:05:28.472Z,99.90
2019-05-18T19:10:52.690Z,99.90
2019-05-18T19:16:17.128Z,99.90
2019-05-18T19:21:41.446Z,99.90
2019-05-18T19:27:04.899Z,99.90
2019-05-18T19:32:28.368Z,99.90
2019-05-18T19:43:15.919Z,99.90
2019-05-18T19:48:40.038Z,99.90
2019-05-18T19:59:27.159Z,99.90
2019-05-18T20:05:06.449Z,99.90
2019-05-18T20:10:15.883Z,99.90
2019-05-18T20:15:39.530Z,99.90
2019-05-18T20:21:03.651Z,99.90
2019-05-18T20:26:27.199Z,99.90
2019-05-18T20:31:50.948Z,99.90
2019-05-18T20:37:14.963Z,99.90
2019-05-18T20:42:38.904Z,99.90
2019-05-18T20:48:02.891Z,99.90
2019-05-18T20:53:26.144Z,99.90
2019-05-18T20:58:50.122Z,99.90
2019-05-18T21:04:13.763Z,99.90
2019-05-18T21:09:38.116Z,99.90
2019-05-18T21:25:50.583Z,99.90
2019-05-18T21:31:17.458Z,99.90
2019-05-18T21:36:42.036Z,99.90
2019-05-18T21:42:05.681Z,99.90
2019-05-18T21:47:34.251Z,99.90
2019-05-18T21:52:58.276Z,99.90
2019-05-18T21:58:21.871Z,99.90
2019-05-18T22:03:48.138Z,99.90
2019-05-18T22:09:09.999Z,99.90
2019-05-18T22:14:33.289Z,99.90
2019-05-18T22:19:56.398Z,99.90
2019-05-18T22:25:20.471Z,99.90
2019-05-18T22:30:44.006Z,99.90
2019-05-18T22:36:07.422Z,99.90
2019-05-18T22:41:31.075Z,99.90
2019-05-18T22:46:57.140Z,99.90
2019-05-18T22:52:20.984Z,99.90
2019-05-18T22:57:43.996Z,99.90
2019-05-18T23:03:07.630Z,99.90
2019-05-18T23:08:31.165Z,99.90
2019-05-18T23:13:54.464Z,99.90
2019-05-18T23:19:17.583Z,99.90
2019-05-18T23:24:40.955Z,99.90
2019-05-18T23:30:04.283Z,99.90
2019-05-18T23:35:27.661Z,99.90
2019-05-18T23:40:51.567Z,99.90
2019-05-18T23:46:15.007Z,99.90
2019-05-18T23:51:38.690Z,99.90
2019-05-18T23:57:03.115Z,99.90
